Tivoli, New York
Current Conditions -  °F | °C
As of 3:38 AM on Friday 24 Oct 2014 (Local Time) from KPOU Reporting Station
Overcast Overcast  
Wind Chill: 50°   Ceiling: 3000
Heat Index: 50°   Visibility: 10mi
Dew Point: 44°   Wind: 6mph
Humidity: 80%   Direction: 350°N
Pressure: 29.79"   Gusts: NA
Location:  42.06°N, 73.91°W
Report Text: KPOU 240738Z AUTO 35005KT 10SM FEW020 OVC030 10/07 A2979 RMK AO2 T01000067 TSNO
Loading
Personal Weather Stations






























Interactive Weather Map
Tropical Storm Tracking
New forecast layout! Learn more

10-Day Weather Forecast

Advertisements
Track Severe Weather on mobile